sensor_id;sensor_type;location;lat;lon;timestamp;P1;durP1;ratioP1;P2;durP2;ratioP2
61413;SDS011;47279;52.426;10.488;2022-12-16T00:01:56;9.55;;;8.23;;
61413;SDS011;47279;52.426;10.488;2022-12-16T00:04:22;8.80;;;7.78;;
61413;SDS011;47279;52.426;10.488;2022-12-16T00:06:48;9.70;;;7.85;;
61413;SDS011;47279;52.426;10.488;2022-12-16T00:09:14;12.07;;;8.77;;
61413;SDS011;47279;52.426;10.488;2022-12-16T00:11:40;9.43;;;7.88;;
61413;SDS011;47279;52.426;10.488;2022-12-16T00:14:06;9.77;;;8.00;;
61413;SDS011;47279;52.426;10.488;2022-12-16T00:16:32;10.88;;;9.07;;
61413;SDS011;47279;52.426;10.488;2022-12-16T00:18:58;9.52;;;7.88;;
61413;SDS011;47279;52.426;10.488;2022-12-16T00:21:24;9.77;;;7.95;;
61413;SDS011;47279;52.426;10.488;2022-12-16T00:23:53;8.95;;;7.72;;
61413;SDS011;47279;52.426;10.488;2022-12-16T00:26:19;9.52;;;8.40;;
61413;SDS011;47279;52.426;10.488;2022-12-16T00:28:45;9.85;;;8.27;;
61413;SDS011;47279;52.426;10.488;2022-12-16T00:31:11;9.88;;;8.73;;
61413;SDS011;47279;52.426;10.488;2022-12-16T00:33:37;11.05;;;8.52;;
61413;SDS011;47279;52.426;10.488;2022-12-16T00:36:03;9.35;;;8.13;;
61413;SDS011;47279;52.426;10.488;2022-12-16T00:38:29;9.45;;;8.18;;
61413;SDS011;47279;52.426;10.488;2022-12-16T00:40:55;10.23;;;8.40;;
61413;SDS011;47279;52.426;10.488;2022-12-16T00:43:21;10.18;;;7.97;;
61413;SDS011;47279;52.426;10.488;2022-12-16T00:45:47;10.18;;;7.88;;
61413;SDS011;47279;52.426;10.488;2022-12-16T00:48:13;9.40;;;7.93;;
61413;SDS011;47279;52.426;10.488;2022-12-16T00:50:40;9.23;;;7.63;;
61413;SDS011;47279;52.426;10.488;2022-12-16T00:53:06;9.10;;;7.90;;
61413;SDS011;47279;52.426;10.488;2022-12-16T00:55:31;8.40;;;7.57;;
61413;SDS011;47279;52.426;10.488;2022-12-16T00:57:57;8.55;;;7.60;;
61413;SDS011;47279;52.426;10.488;2022-12-16T01:00:23;9.63;;;8.63;;
61413;SDS011;47279;52.426;10.488;2022-12-16T01:02:50;8.70;;;7.50;;
61413;SDS011;47279;52.426;10.488;2022-12-16T01:05:17;9.05;;;7.55;;
61413;SDS011;47279;52.426;10.488;2022-12-16T01:07:44;8.63;;;7.72;;
61413;SDS011;47279;52.426;10.488;2022-12-16T01:10:10;9.77;;;7.57;;
61413;SDS011;47279;52.426;10.488;2022-12-16T01:12:37;9.93;;;7.63;;
61413;SDS011;47279;52.426;10.488;2022-12-16T01:15:03;9.82;;;8.02;;
61413;SDS011;47279;52.426;10.488;2022-12-16T01:17:30;9.70;;;8.13;;
61413;SDS011;47279;52.426;10.488;2022-12-16T01:19:56;8.55;;;7.30;;
61413;SDS011;47279;52.426;10.488;2022-12-16T01:22:22;9.00;;;7.78;;
61413;SDS011;47279;52.426;10.488;2022-12-16T01:24:48;9.15;;;7.80;;
61413;SDS011;47279;52.426;10.488;2022-12-16T01:27:14;9.73;;;8.00;;
61413;SDS011;47279;52.426;10.488;2022-12-16T01:29:40;8.13;;;7.32;;
61413;SDS011;47279;52.426;10.488;2022-12-16T01:32:08;9.93;;;7.90;;
61413;SDS011;47279;52.426;10.488;2022-12-16T01:34:34;8.60;;;7.70;;
61413;SDS011;47279;52.426;10.488;2022-12-16T01:37:00;8.52;;;7.72;;
61413;SDS011;47279;52.426;10.488;2022-12-16T01:39:26;9.38;;;8.38;;
61413;SDS011;47279;52.426;10.488;2022-12-16T01:41:54;9.93;;;8.07;;
61413;SDS011;47279;52.426;10.488;2022-12-16T01:44:21;8.23;;;6.88;;
61413;SDS011;47279;52.426;10.488;2022-12-16T01:46:52;9.57;;;8.02;;
61413;SDS011;47279;52.426;10.488;2022-12-16T01:49:23;9.35;;;7.90;;
61413;SDS011;47279;52.426;10.488;2022-12-16T01:51:50;8.20;;;7.13;;
61413;SDS011;47279;52.426;10.488;2022-12-16T01:54:19;9.50;;;7.47;;
61413;SDS011;47279;52.426;10.488;2022-12-16T01:57:08;9.43;;;7.65;;
61413;SDS011;47279;52.426;10.488;2022-12-16T01:59:34;8.40;;;7.03;;
61413;SDS011;47279;52.426;10.488;2022-12-16T02:02:00;8.23;;;7.25;;
61413;SDS011;47279;52.426;10.488;2022-12-16T02:04:27;8.93;;;7.75;;
61413;SDS011;47279;52.426;10.488;2022-12-16T02:06:53;8.10;;;7.30;;
61413;SDS011;47279;52.426;10.488;2022-12-16T02:09:19;9.38;;;7.65;;
61413;SDS011;47279;52.426;10.488;2022-12-16T02:14:38;9.45;;;7.85;;
61413;SDS011;47279;52.426;10.488;2022-12-16T02:27:41;8.02;;;7.20;;
61413;SDS011;47279;52.426;10.488;2022-12-16T02:37:49;8.90;;;8.00;;
61413;SDS011;47279;52.426;10.488;2022-12-16T02:40:29;8.23;;;7.43;;
61413;SDS011;47279;52.426;10.488;2022-12-16T02:42:57;8.60;;;7.45;;
61413;SDS011;47279;52.426;10.488;2022-12-16T02:45:26;9.35;;;8.32;;
61413;SDS011;47279;52.426;10.488;2022-12-16T02:47:53;8.07;;;7.28;;
61413;SDS011;47279;52.426;10.488;2022-12-16T02:52:48;8.30;;;7.45;;
61413;SDS011;47279;52.426;10.488;2022-12-16T02:55:15;8.75;;;7.60;;
61413;SDS011;47279;52.426;10.488;2022-12-16T02:57:49;8.57;;;7.20;;
61413;SDS011;47279;52.426;10.488;2022-12-16T03:00:20;9.93;;;7.55;;
61413;SDS011;47279;52.426;10.488;2022-12-16T03:05:17;8.13;;;7.32;;
61413;SDS011;47279;52.426;10.488;2022-12-16T03:07:45;8.25;;;7.40;;
61413;SDS011;47279;52.426;10.488;2022-12-16T03:10:13;9.10;;;7.55;;
61413;SDS011;47279;52.426;10.488;2022-12-16T03:12:40;9.38;;;7.68;;
61413;SDS011;47279;52.426;10.488;2022-12-16T03:15:08;10.10;;;7.65;;
61413;SDS011;47279;52.426;10.488;2022-12-16T03:17:34;9.10;;;7.18;;
61413;SDS011;47279;52.426;10.488;2022-12-16T03:20:03;8.57;;;7.32;;
61413;SDS011;47279;52.426;10.488;2022-12-16T03:22:32;8.95;;;7.78;;
61413;SDS011;47279;52.426;10.488;2022-12-16T03:24:59;7.97;;;7.18;;
61413;SDS011;47279;52.426;10.488;2022-12-16T03:27:30;9.07;;;8.10;;
61413;SDS011;47279;52.426;10.488;2022-12-16T03:30:09;9.10;;;7.82;;
61413;SDS011;47279;52.426;10.488;2022-12-16T03:32:41;9.07;;;7.38;;
61413;SDS011;47279;52.426;10.488;2022-12-16T03:35:13;8.02;;;7.20;;
61413;SDS011;47279;52.426;10.488;2022-12-16T03:37:41;7.97;;;7.15;;
61413;SDS011;47279;52.426;10.488;2022-12-16T03:40:08;9.57;;;8.57;;
61413;SDS011;47279;52.426;10.488;2022-12-16T03:42:35;8.07;;;6.57;;
61413;SDS011;47279;52.426;10.488;2022-12-16T03:45:01;9.00;;;7.45;;
61413;SDS011;47279;52.426;10.488;2022-12-16T03:47:27;7.93;;;7.13;;
61413;SDS011;47279;52.426;10.488;2022-12-16T03:49:53;9.32;;;8.32;;
61413;SDS011;47279;52.426;10.488;2022-12-16T03:52:20;9.30;;;8.20;;
61413;SDS011;47279;52.426;10.488;2022-12-16T03:54:46;9.48;;;8.00;;
61413;SDS011;47279;52.426;10.488;2022-12-16T03:57:13;8.52;;;7.53;;
61413;SDS011;47279;52.426;10.488;2022-12-16T03:59:39;8.98;;;7.38;;
61413;SDS011;47279;52.426;10.488;2022-12-16T04:02:05;9.45;;;7.80;;
61413;SDS011;47279;52.426;10.488;2022-12-16T04:04:31;7.88;;;6.82;;
61413;SDS011;47279;52.426;10.488;2022-12-16T04:06:57;10.20;;;7.60;;
61413;SDS011;47279;52.426;10.488;2022-12-16T04:09:41;8.85;;;7.95;;
61413;SDS011;47279;52.426;10.488;2022-12-16T04:12:08;8.77;;;7.88;;
61413;SDS011;47279;52.426;10.488;2022-12-16T04:14:52;7.90;;;7.10;;
61413;SDS011;47279;52.426;10.488;2022-12-16T04:17:37;8.15;;;7.35;;
61413;SDS011;47279;52.426;10.488;2022-12-16T04:20:24;8.35;;;7.30;;
61413;SDS011;47279;52.426;10.488;2022-12-16T04:23:11;8.77;;;7.60;;
61413;SDS011;47279;52.426;10.488;2022-12-16T04:25:56;7.93;;;7.00;;
61413;SDS011;47279;52.426;10.488;2022-12-16T04:28:22;7.22;;;6.50;;
61413;SDS011;47279;52.426;10.488;2022-12-16T04:30:48;8.30;;;6.70;;
61413;SDS011;47279;52.426;10.488;2022-12-16T04:33:14;8.68;;;6.97;;
61413;SDS011;47279;52.426;10.488;2022-12-16T04:35:59;8.63;;;7.65;;
61413;SDS011;47279;52.426;10.488;2022-12-16T04:38:44;8.05;;;6.68;;
61413;SDS011;47279;52.426;10.488;2022-12-16T04:41:29;8.90;;;7.45;;
61413;SDS011;47279;52.426;10.488;2022-12-16T04:44:13;9.55;;;7.00;;
61413;SDS011;47279;52.426;10.488;2022-12-16T04:46:58;8.98;;;7.43;;
61413;SDS011;47279;52.426;10.488;2022-12-16T04:49:43;7.47;;;6.65;;
61413;SDS011;47279;52.426;10.488;2022-12-16T04:52:27;8.90;;;7.72;;
61413;SDS011;47279;52.426;10.488;2022-12-16T04:55:12;8.85;;;7.70;;
61413;SDS011;47279;52.426;10.488;2022-12-16T04:57:57;8.43;;;7.13;;
61413;SDS011;47279;52.426;10.488;2022-12-16T05:00:43;9.35;;;8.23;;
61413;SDS011;47279;52.426;10.488;2022-12-16T05:03:28;10.15;;;7.78;;
61413;SDS011;47279;52.426;10.488;2022-12-16T05:06:13;8.38;;;7.53;;
61413;SDS011;47279;52.426;10.488;2022-12-16T05:08:57;9.60;;;8.23;;
61413;SDS011;47279;52.426;10.488;2022-12-16T05:11:42;8.52;;;7.55;;
61413;SDS011;47279;52.426;10.488;2022-12-16T05:14:27;9.07;;;7.90;;
61413;SDS011;47279;52.426;10.488;2022-12-16T05:17:11;8.70;;;7.60;;
61413;SDS011;47279;52.426;10.488;2022-12-16T05:19:56;9.18;;;8.18;;
61413;SDS011;47279;52.426;10.488;2022-12-16T05:22:41;8.73;;;7.82;;
61413;SDS011;47279;52.426;10.488;2022-12-16T05:25:25;9.80;;;7.57;;
61413;SDS011;47279;52.426;10.488;2022-12-16T05:28:10;8.48;;;7.57;;
61413;SDS011;47279;52.426;10.488;2022-12-16T05:30:55;8.80;;;7.32;;
61413;SDS011;47279;52.426;10.488;2022-12-16T05:33:40;9.43;;;7.30;;
61413;SDS011;47279;52.426;10.488;2022-12-16T05:36:24;8.95;;;7.65;;
61413;SDS011;47279;52.426;10.488;2022-12-16T05:39:09;10.15;;;7.72;;
61413;SDS011;47279;52.426;10.488;2022-12-16T05:41:54;9.77;;;7.90;;
61413;SDS011;47279;52.426;10.488;2022-12-16T05:44:38;8.32;;;7.50;;
61413;SDS011;47279;52.426;10.488;2022-12-16T05:47:23;9.02;;;7.75;;
61413;SDS011;47279;52.426;10.488;2022-12-16T05:50:08;9.40;;;8.40;;
61413;SDS011;47279;52.426;10.488;2022-12-16T05:52:53;9.15;;;7.75;;
61413;SDS011;47279;52.426;10.488;2022-12-16T05:55:38;8.77;;;7.50;;
61413;SDS011;47279;52.426;10.488;2022-12-16T05:58:24;8.52;;;7.40;;
61413;SDS011;47279;52.426;10.488;2022-12-16T06:01:09;7.90;;;6.85;;
61413;SDS011;47279;52.426;10.488;2022-12-16T06:03:53;8.60;;;7.07;;
61413;SDS011;47279;52.426;10.488;2022-12-16T06:06:38;8.95;;;7.72;;
61413;SDS011;47279;52.426;10.488;2022-12-16T06:09:23;8.13;;;6.85;;
61413;SDS011;47279;52.426;10.488;2022-12-16T06:12:07;8.15;;;6.93;;
61413;SDS011;47279;52.426;10.488;2022-12-16T06:14:52;10.32;;;7.70;;
61413;SDS011;47279;52.426;10.488;2022-12-16T06:17:40;8.55;;;7.68;;
61413;SDS011;47279;52.426;10.488;2022-12-16T06:20:24;8.73;;;7.68;;
61413;SDS011;47279;52.426;10.488;2022-12-16T06:23:09;9.75;;;8.55;;
61413;SDS011;47279;52.426;10.488;2022-12-16T06:25:54;8.98;;;7.88;;
61413;SDS011;47279;52.426;10.488;2022-12-16T06:28:39;8.30;;;7.43;;
61413;SDS011;47279;52.426;10.488;2022-12-16T06:31:23;8.90;;;8.00;;
61413;SDS011;47279;52.426;10.488;2022-12-16T06:34:08;11.30;;;9.68;;
61413;SDS011;47279;52.426;10.488;2022-12-16T06:36:53;8.65;;;7.75;;
61413;SDS011;47279;52.426;10.488;2022-12-16T06:39:37;7.75;;;6.95;;
61413;SDS011;47279;52.426;10.488;2022-12-16T06:42:22;8.48;;;7.43;;
61413;SDS011;47279;52.426;10.488;2022-12-16T06:45:07;9.32;;;8.40;;
61413;SDS011;47279;52.426;10.488;2022-12-16T06:48:08;8.68;;;7.60;;
61413;SDS011;47279;52.426;10.488;2022-12-16T06:50:53;9.57;;;8.05;;
61413;SDS011;47279;52.426;10.488;2022-12-16T06:53:37;9.50;;;7.68;;
61413;SDS011;47279;52.426;10.488;2022-12-16T06:56:22;8.82;;;7.82;;
61413;SDS011;47279;52.426;10.488;2022-12-16T06:59:07;8.60;;;7.70;;
61413;SDS011;47279;52.426;10.488;2022-12-16T07:01:51;9.55;;;7.80;;
61413;SDS011;47279;52.426;10.488;2022-12-16T07:04:36;8.68;;;7.78;;
61413;SDS011;47279;52.426;10.488;2022-12-16T07:07:20;10.38;;;8.18;;
61413;SDS011;47279;52.426;10.488;2022-12-16T07:10:05;8.60;;;7.30;;
61413;SDS011;47279;52.426;10.488;2022-12-16T07:12:50;9.45;;;7.68;;
61413;SDS011;47279;52.426;10.488;2022-12-16T07:15:35;8.70;;;7.90;;
61413;SDS011;47279;52.426;10.488;2022-12-16T07:18:19;9.57;;;7.68;;
61413;SDS011;47279;52.426;10.488;2022-12-16T07:21:04;10.35;;;8.20;;
61413;SDS011;47279;52.426;10.488;2022-12-16T07:23:49;9.68;;;7.95;;
61413;SDS011;47279;52.426;10.488;2022-12-16T07:26:33;8.77;;;7.70;;
61413;SDS011;47279;52.426;10.488;2022-12-16T07:29:19;10.80;;;8.57;;
61413;SDS011;47279;52.426;10.488;2022-12-16T07:32:04;8.38;;;7.55;;
61413;SDS011;47279;52.426;10.488;2022-12-16T07:34:49;9.38;;;8.18;;
61413;SDS011;47279;52.426;10.488;2022-12-16T07:37:34;10.10;;;8.32;;
61413;SDS011;47279;52.426;10.488;2022-12-16T07:40:20;8.73;;;7.85;;
61413;SDS011;47279;52.426;10.488;2022-12-16T07:43:04;9.25;;;7.90;;
61413;SDS011;47279;52.426;10.488;2022-12-16T07:45:49;9.85;;;8.25;;
61413;SDS011;47279;52.426;10.488;2022-12-16T07:48:34;8.93;;;7.75;;
61413;SDS011;47279;52.426;10.488;2022-12-16T07:51:18;9.38;;;7.68;;
61413;SDS011;47279;52.426;10.488;2022-12-16T07:54:03;10.98;;;8.10;;
61413;SDS011;47279;52.426;10.488;2022-12-16T07:56:47;8.68;;;7.70;;
61413;SDS011;47279;52.426;10.488;2022-12-16T07:59:32;9.43;;;7.95;;
61413;SDS011;47279;52.426;10.488;2022-12-16T08:02:17;9.82;;;8.05;;
61413;SDS011;47279;52.426;10.488;2022-12-16T08:05:01;9.50;;;8.38;;
61413;SDS011;47279;52.426;10.488;2022-12-16T08:07:46;10.70;;;9.20;;
61413;SDS011;47279;52.426;10.488;2022-12-16T08:10:30;11.50;;;9.20;;
61413;SDS011;47279;52.426;10.488;2022-12-16T08:13:15;9.68;;;8.23;;
61413;SDS011;47279;52.426;10.488;2022-12-16T08:16:00;10.65;;;9.55;;
61413;SDS011;47279;52.426;10.488;2022-12-16T08:18:45;10.15;;;9.15;;
61413;SDS011;47279;52.426;10.488;2022-12-16T08:21:29;10.40;;;9.30;;
61413;SDS011;47279;52.426;10.488;2022-12-16T08:24:14;10.40;;;8.27;;
61413;SDS011;47279;52.426;10.488;2022-12-16T08:26:58;9.45;;;8.35;;
61413;SDS011;47279;52.426;10.488;2022-12-16T08:29:43;9.88;;;8.60;;
61413;SDS011;47279;52.426;10.488;2022-12-16T08:32:28;10.15;;;8.30;;
61413;SDS011;47279;52.426;10.488;2022-12-16T08:35:13;10.00;;;8.45;;
61413;SDS011;47279;52.426;10.488;2022-12-16T08:37:57;9.73;;;8.25;;
61413;SDS011;47279;52.426;10.488;2022-12-16T08:40:42;10.40;;;8.73;;
61413;SDS011;47279;52.426;10.488;2022-12-16T08:43:30;9.90;;;8.88;;
61413;SDS011;47279;52.426;10.488;2022-12-16T08:46:15;9.70;;;8.35;;
61413;SDS011;47279;52.426;10.488;2022-12-16T08:49:00;9.57;;;8.63;;
61413;SDS011;47279;52.426;10.488;2022-12-16T08:51:44;9.57;;;8.57;;
61413;SDS011;47279;52.426;10.488;2022-12-16T08:54:29;9.40;;;8.50;;
61413;SDS011;47279;52.426;10.488;2022-12-16T08:57:14;9.75;;;8.52;;
61413;SDS011;47279;52.426;10.488;2022-12-16T08:59:58;10.38;;;8.82;;
61413;SDS011;47279;52.426;10.488;2022-12-16T09:02:43;10.85;;;9.43;;
61413;SDS011;47279;52.426;10.488;2022-12-16T09:05:28;10.30;;;9.20;;
61413;SDS011;47279;52.426;10.488;2022-12-16T09:08:12;11.00;;;9.43;;
61413;SDS011;47279;52.426;10.488;2022-12-16T09:11:00;10.23;;;8.90;;
61413;SDS011;47279;52.426;10.488;2022-12-16T09:13:45;10.73;;;8.90;;
61413;SDS011;47279;52.426;10.488;2022-12-16T09:16:30;9.95;;;8.82;;
61413;SDS011;47279;52.426;10.488;2022-12-16T09:19:14;9.82;;;8.77;;
61413;SDS011;47279;52.426;10.488;2022-12-16T09:21:59;11.10;;;9.38;;
61413;SDS011;47279;52.426;10.488;2022-12-16T09:24:43;11.40;;;9.45;;
61413;SDS011;47279;52.426;10.488;2022-12-16T09:27:28;11.43;;;10.07;;
61413;SDS011;47279;52.426;10.488;2022-12-16T09:30:12;10.57;;;8.57;;
61413;SDS011;47279;52.426;10.488;2022-12-16T09:32:57;10.52;;;9.27;;
61413;SDS011;47279;52.426;10.488;2022-12-16T09:35:44;10.93;;;9.57;;
61413;SDS011;47279;52.426;10.488;2022-12-16T09:38:29;10.43;;;8.73;;
61413;SDS011;47279;52.426;10.488;2022-12-16T09:41:20;10.02;;;8.82;;
61413;SDS011;47279;52.426;10.488;2022-12-16T09:44:09;10.82;;;9.20;;
61413;SDS011;47279;52.426;10.488;2022-12-16T09:47:01;10.38;;;9.00;;
61413;SDS011;47279;52.426;10.488;2022-12-16T09:49:51;11.82;;;9.95;;
61413;SDS011;47279;52.426;10.488;2022-12-16T09:52:38;10.48;;;9.10;;
61413;SDS011;47279;52.426;10.488;2022-12-16T09:55:25;10.85;;;9.75;;
61413;SDS011;47279;52.426;10.488;2022-12-16T09:58:11;11.10;;;9.52;;
61413;SDS011;47279;52.426;10.488;2022-12-16T10:00:57;11.48;;;10.27;;
61413;SDS011;47279;52.426;10.488;2022-12-16T10:03:41;11.57;;;9.77;;
61413;SDS011;47279;52.426;10.488;2022-12-16T10:15:13;10.45;;;8.85;;
61413;SDS011;47279;52.426;10.488;2022-12-16T10:18:01;10.98;;;9.50;;
61413;SDS011;47279;52.426;10.488;2022-12-16T10:20:49;10.27;;;9.27;;
61413;SDS011;47279;52.426;10.488;2022-12-16T10:29:37;9.30;;;8.40;;
61413;SDS011;47279;52.426;10.488;2022-12-16T10:32:28;10.52;;;8.73;;
61413;SDS011;47279;52.426;10.488;2022-12-16T10:38:20;9.95;;;8.95;;
61413;SDS011;47279;52.426;10.488;2022-12-16T10:41:05;9.63;;;8.63;;
61413;SDS011;47279;52.426;10.488;2022-12-16T10:43:50;10.45;;;9.43;;
61413;SDS011;47279;52.426;10.488;2022-12-16T10:46:35;9.45;;;8.45;;
61413;SDS011;47279;52.426;10.488;2022-12-16T10:49:20;10.95;;;9.30;;
61413;SDS011;47279;52.426;10.488;2022-12-16T10:52:05;9.02;;;7.80;;
61413;SDS011;47279;52.426;10.488;2022-12-16T10:54:54;9.27;;;8.27;;
61413;SDS011;47279;52.426;10.488;2022-12-16T11:03:39;10.30;;;9.30;;
61413;SDS011;47279;52.426;10.488;2022-12-16T11:06:24;11.30;;;8.50;;
61413;SDS011;47279;52.426;10.488;2022-12-16T11:09:20;9.80;;;8.65;;
61413;SDS011;47279;52.426;10.488;2022-12-16T11:12:12;8.82;;;7.93;;
61413;SDS011;47279;52.426;10.488;2022-12-16T11:14:57;8.63;;;7.72;;
61413;SDS011;47279;52.426;10.488;2022-12-16T11:17:48;9.43;;;8.50;;
61413;SDS011;47279;52.426;10.488;2022-12-16T11:20:44;9.57;;;8.57;;
61413;SDS011;47279;52.426;10.488;2022-12-16T11:23:29;9.30;;;8.25;;
61413;SDS011;47279;52.426;10.488;2022-12-16T11:29:05;9.75;;;8.70;;
61413;SDS011;47279;52.426;10.488;2022-12-16T11:31:53;8.98;;;8.00;;
61413;SDS011;47279;52.426;10.488;2022-12-16T11:34:39;10.50;;;9.40;;
61413;SDS011;47279;52.426;10.488;2022-12-16T11:37:26;10.02;;;8.98;;
61413;SDS011;47279;52.426;10.488;2022-12-16T11:40:13;8.93;;;7.93;;
61413;SDS011;47279;52.426;10.488;2022-12-16T11:42:59;9.15;;;8.25;;
61413;SDS011;47279;52.426;10.488;2022-12-16T11:45:45;9.38;;;7.85;;
61413;SDS011;47279;52.426;10.488;2022-12-16T11:48:49;10.00;;;8.95;;
61413;SDS011;47279;52.426;10.488;2022-12-16T11:51:35;9.75;;;8.75;;
61413;SDS011;47279;52.426;10.488;2022-12-16T11:54:23;9.73;;;8.75;;
61413;SDS011;47279;52.426;10.488;2022-12-16T11:57:14;10.07;;;9.02;;
61413;SDS011;47279;52.426;10.488;2022-12-16T12:00:00;9.60;;;8.68;;
61413;SDS011;47279;52.426;10.488;2022-12-16T12:05:38;9.20;;;8.05;;
61413;SDS011;47279;52.426;10.488;2022-12-16T12:08:31;10.57;;;8.80;;
61413;SDS011;47279;52.426;10.488;2022-12-16T12:11:23;8.85;;;7.90;;
61413;SDS011;47279;52.426;10.488;2022-12-16T12:14:12;9.23;;;8.23;;
61413;SDS011;47279;52.426;10.488;2022-12-16T12:17:13;8.98;;;8.07;;
61413;SDS011;47279;52.426;10.488;2022-12-16T12:20:15;9.60;;;8.30;;
61413;SDS011;47279;52.426;10.488;2022-12-16T12:23:02;9.80;;;8.80;;
61413;SDS011;47279;52.426;10.488;2022-12-16T12:25:56;9.25;;;8.25;;
61413;SDS011;47279;52.426;10.488;2022-12-16T12:34:53;8.82;;;7.93;;
61413;SDS011;47279;52.426;10.488;2022-12-16T12:37:41;10.85;;;8.05;;
61413;SDS011;47279;52.426;10.488;2022-12-16T12:40:32;8.85;;;7.93;;
61413;SDS011;47279;52.426;10.488;2022-12-16T12:43:25;9.18;;;8.27;;
61413;SDS011;47279;52.426;10.488;2022-12-16T12:46:48;9.10;;;8.20;;
61413;SDS011;47279;52.426;10.488;2022-12-16T12:49:31;8.90;;;7.57;;
61413;SDS011;47279;52.426;10.488;2022-12-16T12:58:27;8.75;;;7.85;;
61413;SDS011;47279;52.426;10.488;2022-12-16T13:01:14;9.18;;;8.27;;
61413;SDS011;47279;52.426;10.488;2022-12-16T13:04:00;9.25;;;8.35;;
61413;SDS011;47279;52.426;10.488;2022-12-16T13:06:48;9.45;;;8.40;;
61413;SDS011;47279;52.426;10.488;2022-12-16T13:09:34;7.85;;;7.05;;
61413;SDS011;47279;52.426;10.488;2022-12-16T13:12:26;9.68;;;8.38;;
61413;SDS011;47279;52.426;10.488;2022-12-16T13:18:19;8.88;;;7.97;;
61413;SDS011;47279;52.426;10.488;2022-12-16T13:21:08;8.50;;;7.60;;
61413;SDS011;47279;52.426;10.488;2022-12-16T13:27:13;9.10;;;8.20;;
61413;SDS011;47279;52.426;10.488;2022-12-16T13:32:56;9.30;;;8.18;;
61413;SDS011;47279;52.426;10.488;2022-12-16T13:35:55;8.35;;;7.20;;
61413;SDS011;47279;52.426;10.488;2022-12-16T13:38:44;8.88;;;7.97;;
61413;SDS011;47279;52.426;10.488;2022-12-16T13:47:32;9.93;;;8.90;;
61413;SDS011;47279;52.426;10.488;2022-12-16T13:53:23;9.60;;;7.63;;
61413;SDS011;47279;52.426;10.488;2022-12-16T13:56:08;8.77;;;7.88;;
61413;SDS011;47279;52.426;10.488;2022-12-16T13:59:00;9.95;;;8.48;;
61413;SDS011;47279;52.426;10.488;2022-12-16T14:04:45;8.85;;;7.95;;
61413;SDS011;47279;52.426;10.488;2022-12-16T14:07:35;8.35;;;7.50;;
61413;SDS011;47279;52.426;10.488;2022-12-16T14:10:25;9.52;;;8.52;;
61413;SDS011;47279;52.426;10.488;2022-12-16T14:13:16;8.20;;;7.40;;
61413;SDS011;47279;52.426;10.488;2022-12-16T14:16:05;9.50;;;8.40;;
61413;SDS011;47279;52.426;10.488;2022-12-16T14:21:59;9.07;;;8.18;;
61413;SDS011;47279;52.426;10.488;2022-12-16T14:24:47;9.18;;;8.23;;
61413;SDS011;47279;52.426;10.488;2022-12-16T14:27:32;9.63;;;7.68;;
61413;SDS011;47279;52.426;10.488;2022-12-16T14:30:19;9.38;;;7.85;;
61413;SDS011;47279;52.426;10.488;2022-12-16T14:36:21;9.60;;;8.35;;
61413;SDS011;47279;52.426;10.488;2022-12-16T14:39:08;9.05;;;8.15;;
61413;SDS011;47279;52.426;10.488;2022-12-16T14:41:53;9.77;;;8.68;;
61413;SDS011;47279;52.426;10.488;2022-12-16T14:44:38;9.80;;;8.65;;
61413;SDS011;47279;52.426;10.488;2022-12-16T14:47:22;9.43;;;8.50;;
61413;SDS011;47279;52.426;10.488;2022-12-16T14:50:21;10.48;;;8.25;;
61413;SDS011;47279;52.426;10.488;2022-12-16T14:53:12;9.85;;;8.32;;
61413;SDS011;47279;52.426;10.488;2022-12-16T14:56:14;8.50;;;7.70;;
61413;SDS011;47279;52.426;10.488;2022-12-16T14:59:18;8.70;;;7.50;;
61413;SDS011;47279;52.426;10.488;2022-12-16T15:05:03;9.87;;;8.43;;
61413;SDS011;47279;52.426;10.488;2022-12-16T15:07:49;9.38;;;8.43;;
61413;SDS011;47279;52.426;10.488;2022-12-16T15:10:33;9.48;;;8.48;;
61413;SDS011;47279;52.426;10.488;2022-12-16T15:13:18;9.15;;;8.25;;
61413;SDS011;47279;52.426;10.488;2022-12-16T15:16:03;9.35;;;8.07;;
61413;SDS011;47279;52.426;10.488;2022-12-16T15:18:56;10.15;;;8.48;;
61413;SDS011;47279;52.426;10.488;2022-12-16T15:21:42;9.18;;;8.10;;
61413;SDS011;47279;52.426;10.488;2022-12-16T15:24:27;8.77;;;7.80;;
61413;SDS011;47279;52.426;10.488;2022-12-16T15:33:09;9.45;;;7.78;;
61413;SDS011;47279;52.426;10.488;2022-12-16T15:36:02;9.50;;;8.35;;
61413;SDS011;47279;52.426;10.488;2022-12-16T15:38:47;8.88;;;7.97;;
61413;SDS011;47279;52.426;10.488;2022-12-16T15:41:33;8.63;;;7.70;;
61413;SDS011;47279;52.426;10.488;2022-12-16T15:44:19;8.60;;;7.75;;
61413;SDS011;47279;52.426;10.488;2022-12-16T15:47:04;9.38;;;8.38;;
61413;SDS011;47279;52.426;10.488;2022-12-16T15:49:49;8.98;;;8.10;;
61413;SDS011;47279;52.426;10.488;2022-12-16T15:52:43;8.73;;;7.72;;
61413;SDS011;47279;52.426;10.488;2022-12-16T15:55:30;8.90;;;8.10;;
61413;SDS011;47279;52.426;10.488;2022-12-16T16:01:09;9.80;;;8.80;;
61413;SDS011;47279;52.426;10.488;2022-12-16T16:03:55;9.73;;;8.75;;
61413;SDS011;47279;52.426;10.488;2022-12-16T16:06:41;8.88;;;8.00;;
61413;SDS011;47279;52.426;10.488;2022-12-16T16:09:28;10.13;;;8.13;;
61413;SDS011;47279;52.426;10.488;2022-12-16T16:12:14;8.10;;;7.30;;
61413;SDS011;47279;52.426;10.488;2022-12-16T16:15:00;9.63;;;8.65;;
61413;SDS011;47279;52.426;10.488;2022-12-16T16:17:46;8.88;;;7.95;;
61413;SDS011;47279;52.426;10.488;2022-12-16T16:20:31;10.23;;;8.68;;
61413;SDS011;47279;52.426;10.488;2022-12-16T16:23:16;8.10;;;7.30;;
61413;SDS011;47279;52.426;10.488;2022-12-16T16:26:01;10.65;;;8.40;;
61413;SDS011;47279;52.426;10.488;2022-12-16T16:28:46;9.35;;;8.35;;
61413;SDS011;47279;52.426;10.488;2022-12-16T16:31:30;8.13;;;7.32;;
61413;SDS011;47279;52.426;10.488;2022-12-16T16:34:15;8.93;;;8.05;;
61413;SDS011;47279;52.426;10.488;2022-12-16T16:37:00;9.93;;;8.65;;
61413;SDS011;47279;52.426;10.488;2022-12-16T16:39:44;10.27;;;9.18;;
61413;SDS011;47279;52.426;10.488;2022-12-16T16:42:29;11.10;;;8.45;;
61413;SDS011;47279;52.426;10.488;2022-12-16T16:45:13;13.00;;;9.68;;
61413;SDS011;47279;52.426;10.488;2022-12-16T16:48:11;12.88;;;9.20;;
61413;SDS011;47279;52.426;10.488;2022-12-16T16:50:57;15.20;;;10.00;;
61413;SDS011;47279;52.426;10.488;2022-12-16T16:53:42;14.25;;;9.70;;
61413;SDS011;47279;52.426;10.488;2022-12-16T16:56:27;16.23;;;10.10;;
61413;SDS011;47279;52.426;10.488;2022-12-16T16:59:24;19.48;;;11.80;;
61413;SDS011;47279;52.426;10.488;2022-12-16T17:02:16;29.83;;;16.20;;
61413;SDS011;47279;52.426;10.488;2022-12-16T17:05:01;26.38;;;15.35;;
61413;SDS011;47279;52.426;10.488;2022-12-16T17:07:47;42.63;;;23.00;;
61413;SDS011;47279;52.426;10.488;2022-12-16T17:10:31;33.03;;;18.38;;
61413;SDS011;47279;52.426;10.488;2022-12-16T17:13:16;26.20;;;15.57;;
61413;SDS011;47279;52.426;10.488;2022-12-16T17:16:00;25.38;;;16.55;;
61413;SDS011;47279;52.426;10.488;2022-12-16T17:18:45;21.35;;;13.85;;
61413;SDS011;47279;52.426;10.488;2022-12-16T17:21:30;29.05;;;16.02;;
61413;SDS011;47279;52.426;10.488;2022-12-16T17:24:14;23.20;;;14.98;;
61413;SDS011;47279;52.426;10.488;2022-12-16T17:27:13;23.95;;;14.07;;
61413;SDS011;47279;52.426;10.488;2022-12-16T17:29:59;21.63;;;13.88;;
61413;SDS011;47279;52.426;10.488;2022-12-16T17:32:44;20.58;;;13.10;;
61413;SDS011;47279;52.426;10.488;2022-12-16T17:35:29;25.27;;;15.45;;
61413;SDS011;47279;52.426;10.488;2022-12-16T17:38:13;26.00;;;15.35;;
61413;SDS011;47279;52.426;10.488;2022-12-16T17:41:03;21.77;;;13.90;;
61413;SDS011;47279;52.426;10.488;2022-12-16T17:43:50;21.85;;;14.27;;